Time;durP1;ratioP1;P1;durP2;ratioP2;P2;SDS_P1;SDS_P2;PMS_P1;PMS_P2;Temp;Humidity;BMP_temperature;BMP_pressure;BME280_temperature;BME280_humidity;BME280_pressure;Samples;Min_cycle;Max_cycle;Signal;HPM_P1;HPM_P2
2022/07/25 00:00:35;;;;;;;5.72;4.38;;;;;;;;;;4982200;28;20404;-61
2022/07/25 00:03:01;;;;;;;5.72;4.57;;;;;;;;;;4983366;28;20500;-61
2022/07/25 00:05:27;;;;;;;5.78;4.22;;;;;;;;;;4979454;28;20253;-62
2022/07/25 00:07:52;;;;;;;5.85;4.60;;;;;;;;;;4985921;28;20038;-60
2022/07/25 00:10:18;;;;;;;6.40;4.65;;;;;;;;;;4985684;28;20065;-60
2022/07/25 00:12:44;;;;;;;6.30;4.88;;;;;;;;;;4982610;28;20686;-60
2022/07/25 00:15:10;;;;;;;5.90;4.40;;;;;;;;;;4980455;28;20136;-58
2022/07/25 00:17:36;;;;;;;8.20;4.80;;;;;;;;;;4982713;28;20055;-60
2022/07/25 00:20:02;;;;;;;6.80;4.80;;;;;;;;;;4981383;28;20029;-60
2022/07/25 00:22:27;;;;;;;6.93;4.97;;;;;;;;;;4980850;28;20046;-60
2022/07/25 00:24:53;;;;;;;7.68;5.03;;;;;;;;;;4966052;28;20050;-60
2022/07/25 00:27:18;;;;;;;5.80;4.80;;;;;;;;;;4963913;28;20455;-61
2022/07/25 00:29:44;;;;;;;7.25;4.78;;;;;;;;;;4982172;28;20053;-61
2022/07/25 00:32:09;;;;;;;7.68;5.05;;;;;;;;;;4983089;28;20072;-61
2022/07/25 00:34:35;;;;;;;7.25;4.97;;;;;;;;;;4980691;28;20065;-60
2022/07/25 00:37:00;;;;;;;8.88;5.00;;;;;;;;;;4981008;28;20046;-61
2022/07/25 00:39:26;;;;;;;8.02;5.20;;;;;;;;;;4979351;28;20050;-60
2022/07/25 00:41:52;;;;;;;8.02;5.22;;;;;;;;;;4983329;28;20057;-60
2022/07/25 00:44:29;;;;;;;6.40;4.60;;;;;;;;;;4982527;28;20023;-61
2022/07/25 00:46:55;;;;;;;6.38;4.88;;;;;;;;;;4981682;28;20284;-60
2022/07/25 00:49:21;;;;;;;5.82;4.60;;;;;;;;;;4987743;28;20054;-60
2022/07/25 00:51:47;;;;;;;8.20;4.95;;;;;;;;;;4985875;28;20057;-60
2022/07/25 00:54:13;;;;;;;9.95;5.15;;;;;;;;;;4985406;28;20055;-60
2022/07/25 00:56:39;;;;;;;7.80;4.68;;;;;;;;;;4983419;28;20080;-60
2022/07/25 00:59:05;;;;;;;5.93;4.60;;;;;;;;;;4986963;28;20042;-60
2022/07/25 01:01:30;;;;;;;5.45;4.30;;;;;;;;;;4983836;28;20796;-60
2022/07/25 01:03:56;;;;;;;4.95;4.40;;;;;;;;;;4987373;28;20449;-60
2022/07/25 01:06:22;;;;;;;5.80;4.35;;;;;;;;;;4985898;28;20049;-61
2022/07/25 01:08:48;;;;;;;6.45;4.28;;;;;;;;;;4985705;28;20077;-60
2022/07/25 01:11:14;;;;;;;8.50;5.00;;;;;;;;;;4984427;28;20030;-61
2022/07/25 01:13:39;;;;;;;7.10;5.03;;;;;;;;;;4988364;28;20037;-60
2022/07/25 01:16:05;;;;;;;5.22;4.43;;;;;;;;;;4988924;28;20054;-60
2022/07/25 01:18:30;;;;;;;6.63;4.50;;;;;;;;;;4984700;28;20089;-61
2022/07/25 01:20:56;;;;;;;5.57;4.50;;;;;;;;;;4989466;28;20065;-60
2022/07/25 01:23:22;;;;;;;5.57;4.63;;;;;;;;;;4983866;28;20486;-60
2022/07/25 01:25:47;;;;;;;5.43;4.45;;;;;;;;;;4981602;28;20031;-59
2022/07/25 01:28:12;;;;;;;6.55;4.68;;;;;;;;;;4982503;28;20057;-62
2022/07/25 01:30:38;;;;;;;7.93;4.80;;;;;;;;;;4970312;28;20134;-61
2022/07/25 01:33:03;;;;;;;8.75;4.88;;;;;;;;;;4972223;28;20050;-59
2022/07/25 01:35:29;;;;;;;5.25;4.38;;;;;;;;;;4980207;28;20048;-62
2022/07/25 01:37:54;;;;;;;6.50;4.75;;;;;;;;;;4982811;28;20026;-59
2022/07/25 01:40:20;;;;;;;6.97;4.75;;;;;;;;;;4986099;28;20384;-60
2022/07/25 01:42:45;;;;;;;5.75;4.72;;;;;;;;;;4983687;28;20252;-60
2022/07/25 01:45:11;;;;;;;6.85;4.70;;;;;;;;;;4987665;28;20058;-60
2022/07/25 01:47:37;;;;;;;7.15;4.93;;;;;;;;;;4983024;28;20055;-60
2022/07/25 01:50:04;;;;;;;7.10;4.90;;;;;;;;;;4968809;28;20936;-60
2022/07/25 01:52:29;;;;;;;6.35;4.97;;;;;;;;;;4983571;28;20125;-60
2022/07/25 01:54:55;;;;;;;5.70;4.70;;;;;;;;;;4983031;28;20065;-60
2022/07/25 01:57:20;;;;;;;6.10;4.93;;;;;;;;;;4985561;28;20038;-60
2022/07/25 01:59:46;;;;;;;10.65;5.20;;;;;;;;;;4977662;28;20047;-62
2022/07/25 02:02:11;;;;;;;8.90;5.18;;;;;;;;;;4962445;28;20581;-61
2022/07/25 02:04:36;;;;;;;5.45;4.00;;;;;;;;;;4983457;28;20050;-60
2022/07/25 02:07:03;;;;;;;6.68;4.55;;;;;;;;;;4987757;28;20038;-61
2022/07/25 02:09:28;;;;;;;6.85;4.72;;;;;;;;;;4981995;28;20042;-62
2022/07/25 02:11:54;;;;;;;6.00;4.32;;;;;;;;;;4986439;28;20050;-60
2022/07/25 02:14:20;;;;;;;6.25;4.93;;;;;;;;;;4985928;28;20069;-60
2022/07/25 02:16:46;;;;;;;5.60;4.72;;;;;;;;;;4984376;28;20045;-62
2022/07/25 02:19:11;;;;;;;6.05;4.88;;;;;;;;;;4984569;28;20047;-61
2022/07/25 02:21:37;;;;;;;9.23;4.55;;;;;;;;;;4981682;28;20055;-60
2022/07/25 02:24:02;;;;;;;6.90;4.93;;;;;;;;;;4982808;28;20112;-60
2022/07/25 02:26:28;;;;;;;5.78;4.70;;;;;;;;;;4983636;28;20065;-61
2022/07/25 02:28:53;;;;;;;7.97;4.72;;;;;;;;;;4983224;28;20121;-61
2022/07/25 02:31:19;;;;;;;6.18;4.85;;;;;;;;;;4976998;28;20069;-61
2022/07/25 02:33:44;;;;;;;7.20;5.45;;;;;;;;;;4984797;28;20047;-61
2022/07/25 02:36:10;;;;;;;5.68;4.55;;;;;;;;;;4983813;28;20504;-60
2022/07/25 02:38:35;;;;;;;5.68;4.57;;;;;;;;;;4980586;28;20408;-59
2022/07/25 02:41:01;;;;;;;7.07;5.13;;;;;;;;;;4982165;28;20081;-60
2022/07/25 02:43:26;;;;;;;8.10;4.95;;;;;;;;;;4979862;28;20584;-60
2022/07/25 02:45:52;;;;;;;5.93;5.00;;;;;;;;;;4979689;28;20518;-60
2022/07/25 02:48:17;;;;;;;6.65;5.07;;;;;;;;;;4983024;28;20054;-62
2022/07/25 02:50:42;;;;;;;6.43;5.00;;;;;;;;;;4985179;28;20066;-61
2022/07/25 02:53:08;;;;;;;6.10;5.13;;;;;;;;;;4988718;28;20066;-62
2022/07/25 02:55:33;;;;;;;9.52;5.57;;;;;;;;;;4982563;28;20054;-62
2022/07/25 02:57:58;;;;;;;6.45;4.80;;;;;;;;;;4970968;28;20043;-62
2022/07/25 03:00:24;;;;;;;10.45;5.50;;;;;;;;;;4972835;28;20062;-60
2022/07/25 03:02:50;;;;;;;6.50;5.05;;;;;;;;;;4981384;28;20047;-61
2022/07/25 03:05:16;;;;;;;6.22;5.25;;;;;;;;;;4980174;28;21619;-60
2022/07/25 03:07:43;;;;;;;7.57;5.25;;;;;;;;;;4980316;28;20124;-60
2022/07/25 03:10:10;;;;;;;8.68;5.28;;;;;;;;;;4984042;28;20137;-60
2022/07/25 03:12:37;;;;;;;8.43;5.10;;;;;;;;;;4981589;28;20054;-60
2022/07/25 03:15:03;;;;;;;7.05;5.40;;;;;;;;;;4978629;28;20050;-60
2022/07/25 03:17:28;;;;;;;6.38;4.90;;;;;;;;;;4978603;28;20486;-60
2022/07/25 03:19:55;;;;;;;7.68;5.10;;;;;;;;;;4983580;28;20030;-61
2022/07/25 03:22:21;;;;;;;6.97;5.10;;;;;;;;;;4986024;28;20046;-61
2022/07/25 03:24:46;;;;;;;6.82;5.03;;;;;;;;;;4977450;28;20493;-61
2022/07/25 03:27:12;;;;;;;9.40;5.43;;;;;;;;;;4979990;28;20050;-61
2022/07/25 03:29:37;;;;;;;6.95;5.05;;;;;;;;;;4984636;28;20425;-62
2022/07/25 03:32:03;;;;;;;8.30;4.90;;;;;;;;;;4982877;28;20072;-60
2022/07/25 03:34:29;;;;;;;7.97;4.63;;;;;;;;;;4982069;28;20050;-60
2022/07/25 03:36:54;;;;;;;9.32;5.30;;;;;;;;;;4981003;28;20054;-59
2022/07/25 03:39:20;;;;;;;7.93;5.25;;;;;;;;;;4981667;28;20129;-63
2022/07/25 03:41:46;;;;;;;7.57;4.85;;;;;;;;;;4978821;28;20138;-62
2022/07/25 03:44:11;;;;;;;6.57;5.47;;;;;;;;;;4983308;28;20069;-61
2022/07/25 03:46:37;;;;;;;10.40;5.10;;;;;;;;;;4981614;28;20046;-63
2022/07/25 03:49:03;;;;;;;8.20;4.95;;;;;;;;;;4980739;28;20061;-61
2022/07/25 03:51:29;;;;;;;8.75;5.40;;;;;;;;;;4980010;28;20053;-61
2022/07/25 03:54:04;;;;;;;7.68;4.72;;;;;;;;;;4977368;28;20054;-62
2022/07/25 03:56:35;;;;;;;9.25;5.25;;;;;;;;;;4980228;28;20044;-61
2022/07/25 03:59:00;;;;;;;8.70;5.15;;;;;;;;;;4981912;28;20042;-61
2022/07/25 04:01:26;;;;;;;5.90;4.75;;;;;;;;;;4981222;28;20050;-62
2022/07/25 04:03:51;;;;;;;7.95;5.60;;;;;;;;;;4984734;28;20051;-62
2022/07/25 04:06:17;;;;;;;11.57;4.95;;;;;;;;;;4980872;28;20038;-62
2022/07/25 04:08:42;;;;;;;7.43;5.20;;;;;;;;;;4981762;28;20054;-62
2022/07/25 04:11:08;;;;;;;6.57;4.97;;;;;;;;;;4985098;28;20034;-60
2022/07/25 04:13:33;;;;;;;7.28;5.03;;;;;;;;;;4981174;28;20053;-60
2022/07/25 04:15:59;;;;;;;8.52;5.18;;;;;;;;;;4982653;28;20042;-61
2022/07/25 04:18:24;;;;;;;11.05;5.22;;;;;;;;;;4984341;28;20050;-67
2022/07/25 04:20:49;;;;;;;7.10;5.15;;;;;;;;;;4985544;28;20505;-62
2022/07/25 04:23:15;;;;;;;8.50;5.22;;;;;;;;;;4983193;28;20065;-61
2022/07/25 04:25:40;;;;;;;10.13;5.75;;;;;;;;;;4980311;28;20370;-62
2022/07/25 04:28:06;;;;;;;8.27;5.43;;;;;;;;;;4983388;28;20160;-61
2022/07/25 04:30:31;;;;;;;9.55;5.47;;;;;;;;;;4972749;28;20049;-61
2022/07/25 04:32:56;;;;;;;7.22;5.07;;;;;;;;;;4974668;28;20050;-61
2022/07/25 04:35:22;;;;;;;6.65;5.50;;;;;;;;;;4988758;28;20109;-61
2022/07/25 04:37:48;;;;;;;8.95;5.70;;;;;;;;;;4984009;28;20034;-62
2022/07/25 04:40:13;;;;;;;13.13;5.40;;;;;;;;;;4983778;28;20050;-62
2022/07/25 04:42:39;;;;;;;6.90;5.13;;;;;;;;;;4983797;28;20035;-61
2022/07/25 04:45:05;;;;;;;11.13;5.80;;;;;;;;;;4985990;28;20109;-61
2022/07/25 04:47:30;;;;;;;8.30;5.43;;;;;;;;;;4988441;28;20041;-60
2022/07/25 04:49:55;;;;;;;7.80;5.07;;;;;;;;;;4986707;28;20034;-61
2022/07/25 04:52:21;;;;;;;6.60;5.22;;;;;;;;;;4990758;28;20030;-61
2022/07/25 04:54:46;;;;;;;6.57;5.03;;;;;;;;;;4986628;28;20457;-61
2022/07/25 04:57:12;;;;;;;6.40;5.15;;;;;;;;;;4988134;28;20046;-61
2022/07/25 04:59:37;;;;;;;7.55;5.40;;;;;;;;;;4982378;28;20054;-59
2022/07/25 05:02:03;;;;;;;13.02;5.50;;;;;;;;;;4983049;28;20581;-61
2022/07/25 05:04:28;;;;;;;7.70;5.00;;;;;;;;;;4988350;28;20054;-62
2022/07/25 05:06:53;;;;;;;7.05;4.95;;;;;;;;;;4987026;28;20093;-62
2022/07/25 05:09:19;;;;;;;11.02;5.20;;;;;;;;;;4989537;28;20235;-64
2022/07/25 05:11:44;;;;;;;7.95;4.55;;;;;;;;;;4985840;28;20045;-64
2022/07/25 05:14:09;;;;;;;7.25;4.82;;;;;;;;;;4988368;28;20034;-64
2022/07/25 05:16:35;;;;;;;8.50;4.72;;;;;;;;;;4985115;28;20069;-63
2022/07/25 05:19:00;;;;;;;6.35;4.72;;;;;;;;;;4985230;28;20093;-63
2022/07/25 05:21:26;;;;;;;7.20;5.07;;;;;;;;;;4985628;28;20050;-63
2022/07/25 05:23:52;;;;;;;9.70;5.05;;;;;;;;;;4985101;28;20141;-63
2022/07/25 05:26:17;;;;;;;5.45;4.63;;;;;;;;;;4987273;28;20054;-64
2022/07/25 05:28:43;;;;;;;6.88;5.13;;;;;;;;;;4987850;28;20534;-63
2022/07/25 05:31:08;;;;;;;11.52;5.30;;;;;;;;;;4987486;28;20125;-64
2022/07/25 05:33:34;;;;;;;7.93;5.25;;;;;;;;;;4984197;28;20468;-63
2022/07/25 05:36:00;;;;;;;10.07;5.20;;;;;;;;;;4980049;28;20508;-64
2022/07/25 05:38:26;;;;;;;6.32;5.43;;;;;;;;;;4984712;28;20379;-63
2022/07/25 05:40:51;;;;;;;6.55;4.88;;;;;;;;;;4986213;28;20030;-63
2022/07/25 05:43:17;;;;;;;12.75;5.53;;;;;;;;;;4982973;28;20455;-65
2022/07/25 05:45:43;;;;;;;7.65;5.88;;;;;;;;;;4976406;28;20066;-63
2022/07/25 05:48:08;;;;;;;6.68;5.15;;;;;;;;;;4985056;28;20408;-63
2022/07/25 05:50:36;;;;;;;9.13;5.40;;;;;;;;;;4981888;28;20085;-63
2022/07/25 05:53:01;;;;;;;6.25;5.57;;;;;;;;;;4984374;28;20374;-63
2022/07/25 05:55:26;;;;;;;8.93;5.35;;;;;;;;;;4987944;28;20105;-63
2022/07/25 05:57:52;;;;;;;10.88;5.63;;;;;;;;;;4986791;28;20058;-62
2022/07/25 06:00:17;;;;;;;7.63;5.30;;;;;;;;;;4983810;28;20050;-63
2022/07/25 06:02:43;;;;;;;7.68;5.68;;;;;;;;;;4980856;28;20050;-63
2022/07/25 06:05:09;;;;;;;10.05;5.78;;;;;;;;;;4982551;28;20085;-63
2022/07/25 06:07:34;;;;;;;10.43;6.00;;;;;;;;;;4984634;28;20738;-62
2022/07/25 06:09:59;;;;;;;7.75;5.15;;;;;;;;;;4980123;28;20042;-65
2022/07/25 06:12:25;;;;;;;9.38;5.40;;;;;;;;;;4979133;28;20050;-62
2022/07/25 06:14:50;;;;;;;8.20;5.22;;;;;;;;;;4983750;28;20069;-64
2022/07/25 06:17:16;;;;;;;8.15;5.20;;;;;;;;;;4984364;28;20459;-64
2022/07/25 06:19:41;;;;;;;8.00;5.10;;;;;;;;;;4980148;28;20125;-62
2022/07/25 06:22:08;;;;;;;9.05;5.40;;;;;;;;;;4984291;28;20061;-62
2022/07/25 06:24:34;;;;;;;6.78;5.70;;;;;;;;;;4979877;28;20050;-61
2022/07/25 06:26:59;;;;;;;9.90;5.05;;;;;;;;;;4983097;28;20140;-61
2022/07/25 06:29:25;;;;;;;8.18;5.68;;;;;;;;;;4985001;28;20057;-62
2022/07/25 06:31:50;;;;;;;9.40;5.47;;;;;;;;;;4979785;28;20046;-61
2022/07/25 06:34:16;;;;;;;7.40;4.95;;;;;;;;;;4986734;28;20073;-62
2022/07/25 06:36:41;;;;;;;7.05;4.85;;;;;;;;;;4979323;28;20129;-62
2022/07/25 06:39:06;;;;;;;8.25;5.78;;;;;;;;;;4982180;28;20049;-62
2022/07/25 06:41:32;;;;;;;10.38;5.55;;;;;;;;;;4976741;28;20050;-62
2022/07/25 06:43:57;;;;;;;11.70;5.05;;;;;;;;;;4982153;28;20096;-60
2022/07/25 06:46:23;;;;;;;7.30;5.85;;;;;;;;;;4986281;28;20099;-61
2022/07/25 06:48:48;;;;;;;7.40;5.70;;;;;;;;;;4983913;28;20078;-62
2022/07/25 06:51:13;;;;;;;8.95;5.35;;;;;;;;;;4986643;28;20513;-62
2022/07/25 06:53:39;;;;;;;7.22;5.50;;;;;;;;;;4984124;28;20046;-62
2022/07/25 06:56:04;;;;;;;9.25;5.25;;;;;;;;;;4986053;28;20173;-61
2022/07/25 06:58:30;;;;;;;6.45;4.65;;;;;;;;;;4985768;28;20047;-61
2022/07/25 07:00:55;;;;;;;10.57;5.80;;;;;;;;;;4984545;28;20050;-61
2022/07/25 07:03:21;;;;;;;8.02;5.00;;;;;;;;;;4986986;28;20117;-61
2022/07/25 07:05:46;;;;;;;10.05;5.95;;;;;;;;;;4985784;28;20492;-61
2022/07/25 07:08:12;;;;;;;6.93;4.53;;;;;;;;;;4985774;28;20034;-62
2022/07/25 07:10:39;;;;;;;7.30;5.10;;;;;;;;;;4983749;28;20037;-61
2022/07/25 07:13:09;;;;;;;11.02;5.32;;;;;;;;;;4983548;28;20085;-61
2022/07/25 07:15:36;;;;;;;6.78;5.25;;;;;;;;;;4979014;28;20054;-61
2022/07/25 07:18:01;;;;;;;9.57;5.47;;;;;;;;;;4983917;28;20408;-64
2022/07/25 07:20:27;;;;;;;6.95;5.10;;;;;;;;;;4982232;28;20117;-61
2022/07/25 07:22:52;;;;;;;8.50;5.80;;;;;;;;;;4964386;28;20029;-61
2022/07/25 07:25:20;;;;;;;10.95;5.20;;;;;;;;;;4964372;28;20042;-61
2022/07/25 07:27:46;;;;;;;8.80;5.57;;;;;;;;;;4964269;28;20488;-62
2022/07/25 07:30:13;;;;;;;9.95;5.90;;;;;;;;;;4963788;28;20047;-62
2022/07/25 07:32:39;;;;;;;8.90;6.20;;;;;;;;;;4968762;28;20054;-62
2022/07/25 07:35:05;;;;;;;7.43;5.47;;;;;;;;;;4986404;28;20042;-62
2022/07/25 07:37:30;;;;;;;14.00;5.50;;;;;;;;;;4983666;28;20050;-62
2022/07/25 07:39:56;;;;;;;8.43;5.38;;;;;;;;;;4982205;28;20081;-63
2022/07/25 07:42:21;;;;;;;11.82;5.78;;;;;;;;;;4983922;28;20065;-62
2022/07/25 07:44:46;;;;;;;7.63;5.38;;;;;;;;;;4983270;28;20066;-62
2022/07/25 07:47:12;;;;;;;9.52;5.70;;;;;;;;;;4984472;28;20022;-61
2022/07/25 07:49:37;;;;;;;8.57;5.75;;;;;;;;;;4984686;28;20026;-61
2022/07/25 07:52:03;;;;;;;11.68;5.45;;;;;;;;;;4984645;28;20046;-61
2022/07/25 07:57:12;;;;;;;10.40;5.28;;;;;;;;;;4986178;28;20049;-61
2022/07/25 07:59:38;;;;;;;8.75;5.60;;;;;;;;;;4986233;28;20405;-62
2022/07/25 08:02:03;;;;;;;8.10;4.90;;;;;;;;;;4986570;28;20177;-61
2022/07/25 08:04:28;;;;;;;7.40;5.00;;;;;;;;;;4984265;28;20133;-61
2022/07/25 08:06:54;;;;;;;11.73;5.45;;;;;;;;;;4983222;28;20389;-61
2022/07/25 08:09:20;;;;;;;11.90;5.38;;;;;;;;;;4982360;28;20105;-61
2022/07/25 08:11:45;;;;;;;10.02;5.38;;;;;;;;;;4980821;28;20061;-61
2022/07/25 08:14:11;;;;;;;8.38;5.53;;;;;;;;;;4983705;28;20034;-61
2022/07/25 08:16:36;;;;;;;9.68;5.70;;;;;;;;;;4984826;28;20101;-61
2022/07/25 08:19:01;;;;;;;8.00;5.40;;;;;;;;;;4981082;28;20047;-61
2022/07/25 08:21:27;;;;;;;9.20;5.65;;;;;;;;;;4982290;28;20051;-61
2022/07/25 08:23:53;;;;;;;7.50;5.50;;;;;;;;;;4977841;28;20096;-62
2022/07/25 08:26:18;;;;;;;8.50;5.75;;;;;;;;;;4980936;28;20397;-62
2022/07/25 08:28:44;;;;;;;9.93;5.70;;;;;;;;;;4983712;28;20045;-63
2022/07/25 08:31:09;;;;;;;10.82;5.53;;;;;;;;;;4983140;28;20038;-60
2022/07/25 08:33:35;;;;;;;7.07;5.20;;;;;;;;;;4983390;28;20042;-61
2022/07/25 08:36:00;;;;;;;10.30;5.60;;;;;;;;;;4980648;28;20126;-61
2022/07/25 08:38:27;;;;;;;7.47;5.65;;;;;;;;;;4980168;28;20030;-61
2022/07/25 08:40:54;;;;;;;7.93;5.80;;;;;;;;;;4980827;28;20571;-61
2022/07/25 08:43:19;;;;;;;8.82;5.68;;;;;;;;;;4981986;28;20054;-61
2022/07/25 08:45:51;;;;;;;13.60;6.53;;;;;;;;;;4979475;28;20061;-61
2022/07/25 08:48:21;;;;;;;10.18;5.88;;;;;;;;;;4980445;28;20050;-61
2022/07/25 08:50:47;;;;;;;12.77;7.35;;;;;;;;;;4982297;28;20164;-61
2022/07/25 08:53:15;;;;;;;8.98;6.32;;;;;;;;;;4978769;28;20061;-61
2022/07/25 08:55:42;;;;;;;9.80;6.60;;;;;;;;;;4979207;28;20062;-61
2022/07/25 08:58:09;;;;;;;9.18;5.93;;;;;;;;;;4980068;28;20457;-61
2022/07/25 09:00:35;;;;;;;7.50;5.72;;;;;;;;;;4981875;28;20065;-61
2022/07/25 09:03:02;;;;;;;9.13;6.20;;;;;;;;;;4978678;28;20046;-61
2022/07/25 09:05:30;;;;;;;10.07;6.65;;;;;;;;;;4979925;28;20041;-60
2022/07/25 09:07:56;;;;;;;8.18;5.78;;;;;;;;;;4980736;28;20113;-61
2022/07/25 09:10:27;;;;;;;10.48;6.43;;;;;;;;;;4980669;28;20112;-61
2022/07/25 09:12:58;;;;;;;12.30;7.07;;;;;;;;;;4982477;28;20052;-60
2022/07/25 09:15:29;;;;;;;8.68;6.35;;;;;;;;;;4988524;28;20069;-61
2022/07/25 09:17:57;;;;;;;12.32;6.70;;;;;;;;;;4981281;28;20460;-61
2022/07/25 09:20:26;;;;;;;11.90;6.05;;;;;;;;;;4982787;28;20109;-62
2022/07/25 09:22:51;;;;;;;8.98;5.82;;;;;;;;;;4985565;28;20031;-61
2022/07/25 09:25:28;;;;;;;8.45;5.85;;;;;;;;;;4983035;28;20408;-62
2022/07/25 09:27:54;;;;;;;7.60;5.70;;;;;;;;;;4981247;28;20066;-62
2022/07/25 09:30:20;;;;;;;14.32;6.60;;;;;;;;;;4986054;28;20038;-61
2022/07/25 09:32:46;;;;;;;8.77;6.30;;;;;;;;;;4981918;28;20050;-62
2022/07/25 09:35:11;;;;;;;10.48;6.10;;;;;;;;;;4983824;28;20038;-61
2022/07/25 09:37:37;;;;;;;10.77;6.00;;;;;;;;;;4985508;28;20065;-61
2022/07/25 09:40:13;;;;;;;5.93;5.20;;;;;;;;;;4985156;28;20124;-61
2022/07/25 09:42:38;;;;;;;7.38;5.53;;;;;;;;;;4990266;28;20533;-61
2022/07/25 09:45:08;;;;;;;9.77;5.72;;;;;;;;;;4990324;28;20145;-62
2022/07/25 09:47:35;;;;;;;10.45;5.70;;;;;;;;;;4988650;28;20050;-62
2022/07/25 09:50:03;;;;;;;8.55;5.57;;;;;;;;;;4986046;28;20049;-62
2022/07/25 09:52:28;;;;;;;8.40;5.45;;;;;;;;;;4986630;28;20405;-63
2022/07/25 09:54:54;;;;;;;7.32;5.70;;;;;;;;;;4984550;28;20089;-62
2022/07/25 09:57:22;;;;;;;8.52;5.60;;;;;;;;;;4971931;28;20050;-62
2022/07/25 09:59:48;;;;;;;10.77;5.15;;;;;;;;;;4984118;28;20386;-60
2022/07/25 10:02:25;;;;;;;6.68;5.00;;;;;;;;;;4985793;28;20041;-61
2022/07/25 10:05:06;;;;;;;8.05;4.97;;;;;;;;;;4988423;28;20034;-62
2022/07/25 10:07:35;;;;;;;6.32;5.40;;;;;;;;;;4982853;28;20050;-66
2022/07/25 10:10:01;;;;;;;6.20;4.75;;;;;;;;;;4983030;28;20054;-61
2022/07/25 10:12:26;;;;;;;5.78;4.93;;;;;;;;;;4987029;28;20378;-61
2022/07/25 10:15:09;;;;;;;5.40;4.53;;;;;;;;;;4988062;28;20748;-61
2022/07/25 10:17:36;;;;;;;8.38;4.90;;;;;;;;;;4985156;28;20038;-61
2022/07/25 10:20:05;;;;;;;5.45;4.38;;;;;;;;;;4987571;28;20053;-62
2022/07/25 10:22:44;;;;;;;7.63;4.75;;;;;;;;;;4986474;28;20070;-61
2022/07/25 10:25:20;;;;;;;9.00;4.97;;;;;;;;;;4979938;28;20563;-61
2022/07/25 10:27:47;;;;;;;6.07;5.05;;;;;;;;;;4984481;28;20046;-61
2022/07/25 10:30:26;;;;;;;5.60;4.95;;;;;;;;;;4983010;28;20061;-61
2022/07/25 10:32:59;;;;;;;9.20;5.60;;;;;;;;;;4982658;28;20070;-61
2022/07/25 10:35:26;;;;;;;5.82;4.75;;;;;;;;;;4983851;28;20042;-62
2022/07/25 10:37:54;;;;;;;6.35;5.28;;;;;;;;;;4983249;28;20480;-62
2022/07/25 10:40:33;;;;;;;5.68;4.70;;;;;;;;;;4989328;28;20055;-62
2022/07/25 10:43:20;;;;;;;6.90;4.85;;;;;;;;;;4979930;28;20050;-62
2022/07/25 10:45:55;;;;;;;8.68;5.28;;;;;;;;;;4982507;28;20042;-62
2022/07/25 10:48:26;;;;;;;5.18;4.57;;;;;;;;;;4983587;28;20053;-62
2022/07/25 10:51:00;;;;;;;5.78;4.93;;;;;;;;;;4983417;28;20049;-62
2022/07/25 10:53:47;;;;;;;6.80;5.22;;;;;;;;;;4985060;28;20428;-62
2022/07/25 10:56:16;;;;;;;6.85;4.50;;;;;;;;;;4967155;28;20041;-63
2022/07/25 10:58:55;;;;;;;6.70;5.00;;;;;;;;;;4965419;28;20038;-62
2022/07/25 11:01:31;;;;;;;5.68;4.35;;;;;;;;;;4980738;28;20043;-62
2022/07/25 11:04:13;;;;;;;6.40;4.30;;;;;;;;;;4975453;28;20058;-62
2022/07/25 11:06:41;;;;;;;5.70;4.35;;;;;;;;;;4984904;28;20499;-62
2022/07/25 11:09:22;;;;;;;4.72;4.22;;;;;;;;;;4985670;28;20385;-62
2022/07/25 11:11:50;;;;;;;7.57;4.28;;;;;;;;;;4984431;28;20050;-64
2022/07/25 11:14:18;;;;;;;4.35;3.95;;;;;;;;;;4985757;28;20026;-63
2022/07/25 11:16:44;;;;;;;6.95;4.03;;;;;;;;;;4983280;28;20404;-62
2022/07/25 11:19:27;;;;;;;5.28;3.88;;;;;;;;;;4980912;28;20129;-62
2022/07/25 11:21:55;;;;;;;4.72;4.03;;;;;;;;;;4983751;28;20041;-62
2022/07/25 11:24:32;;;;;;;8.27;3.80;;;;;;;;;;4986122;28;20420;-62
2022/07/25 11:26:57;;;;;;;4.50;3.53;;;;;;;;;;4984246;28;20057;-62
2022/07/25 11:29:25;;;;;;;6.32;3.63;;;;;;;;;;4982907;28;20034;-62
2022/07/25 11:32:00;;;;;;;6.78;3.58;;;;;;;;;;4984631;28;20092;-62
2022/07/25 11:34:31;;;;;;;4.20;3.75;;;;;;;;;;4982944;28;20113;-62
2022/07/25 11:36:59;;;;;;;5.68;4.07;;;;;;;;;;4983138;28;20064;-62
2022/07/25 11:39:26;;;;;;;4.95;4.07;;;;;;;;;;4984226;28;20393;-62
2022/07/25 11:42:14;;;;;;;7.50;4.20;;;;;;;;;;4983339;28;20050;-62
2022/07/25 11:44:46;;;;;;;5.35;3.78;;;;;;;;;;4984303;28;20042;-62
2022/07/25 11:47:32;;;;;;;7.60;4.10;;;;;;;;;;4982390;28;20068;-62
2022/07/25 11:50:00;;;;;;;5.05;3.70;;;;;;;;;;4979511;28;20471;-62
2022/07/25 11:52:28;;;;;;;3.75;3.45;;;;;;;;;;4981137;28;20053;-62
2022/07/25 11:55:00;;;;;;;3.63;3.33;;;;;;;;;;4984510;28;20057;-62
2022/07/25 11:57:26;;;;;;;;;;;;;;;;;;4988469;28;20108;-62
2022/07/25 11:59:53;;;;;;;5.03;3.60;;;;;;;;;;4984316;28;19924;-60
2022/07/25 12:02:30;;;;;;;4.28;3.88;;;;;;;;;;4985891;28;20042;-62
2022/07/25 12:04:59;;;;;;;4.65;4.25;;;;;;;;;;4982782;28;20104;-62
2022/07/25 12:07:43;;;;;;;6.68;4.30;;;;;;;;;;4980228;28;20141;-62
2022/07/25 12:10:15;;;;;;;4.72;3.50;;;;;;;;;;4966409;28;20077;-62
2022/07/25 12:12:47;;;;;;;4.70;3.78;;;;;;;;;;4974208;28;20069;-63
2022/07/25 12:15:14;;;;;;;5.47;3.53;;;;;;;;;;4978284;28;20130;-63
2022/07/25 12:17:40;;;;;;;3.97;3.55;;;;;;;;;;4980588;28;20046;-62
2022/07/25 12:20:12;;;;;;;5.82;3.88;;;;;;;;;;4980308;28;20049;-62
2022/07/25 12:22:38;;;;;;;4.47;3.97;;;;;;;;;;4963313;28;20050;-62
2022/07/25 12:25:04;;;;;;;4.20;3.80;;;;;;;;;;4975772;28;20055;-62
2022/07/25 12:27:30;;;;;;;4.88;3.80;;;;;;;;;;4979823;28;20058;-62
2022/07/25 12:29:55;;;;;;;4.30;3.80;;;;;;;;;;4983082;28;20077;-63
2022/07/25 12:32:21;;;;;;;4.63;4.18;;;;;;;;;;4981450;28;20066;-62
2022/07/25 12:34:46;;;;;;;6.80;3.72;;;;;;;;;;4979834;28;20037;-63
2022/07/25 12:37:12;;;;;;;4.93;4.00;;;;;;;;;;4980098;28;20043;-63
2022/07/25 12:39:37;;;;;;;6.07;4.07;;;;;;;;;;4981176;28;20042;-63
2022/07/25 12:42:02;;;;;;;5.65;3.65;;;;;;;;;;4979873;28;20057;-63
2022/07/25 12:44:28;;;;;;;5.07;3.67;;;;;;;;;;4980028;28;20041;-63
2022/07/25 12:46:53;;;;;;;4.38;3.72;;;;;;;;;;4979818;28;20097;-63
2022/07/25 12:49:18;;;;;;;4.75;3.95;;;;;;;;;;4981268;28;20055;-63
2022/07/25 12:51:44;;;;;;;7.15;3.90;;;;;;;;;;4971591;28;20070;-64
2022/07/25 12:54:09;;;;;;;5.28;3.50;;;;;;;;;;4972416;28;20043;-63
2022/07/25 12:56:35;;;;;;;3.70;3.40;;;;;;;;;;4982857;28;20412;-64
2022/07/25 12:59:01;;;;;;;7.40;3.50;;;;;;;;;;4982223;28;20688;-62
2022/07/25 13:01:26;;;;;;;4.95;3.40;;;;;;;;;;4983134;28;20133;-63
2022/07/25 13:03:51;;;;;;;4.70;3.20;;;;;;;;;;4982478;28;20047;-64
2022/07/25 13:06:19;;;;;;;4.85;3.53;;;;;;;;;;4980616;28;20074;-63
2022/07/25 13:08:45;;;;;;;3.95;3.55;;;;;;;;;;4981313;28;20047;-64
2022/07/25 13:11:11;;;;;;;4.55;3.30;;;;;;;;;;4987442;28;20113;-62
2022/07/25 13:13:37;;;;;;;6.65;3.85;;;;;;;;;;4986316;28;20089;-62
2022/07/25 13:16:02;;;;;;;6.85;3.30;;;;;;;;;;4982250;28;20074;-63
2022/07/25 13:18:29;;;;;;;4.82;3.55;;;;;;;;;;4982323;28;20080;-62
2022/07/25 13:20:54;;;;;;;4.60;3.35;;;;;;;;;;4980964;28;20050;-62
2022/07/25 13:23:19;;;;;;;5.03;3.75;;;;;;;;;;4982646;28;20037;-63
2022/07/25 13:25:45;;;;;;;5.40;3.35;;;;;;;;;;4983603;28;20085;-63
2022/07/25 13:28:10;;;;;;;3.97;3.67;;;;;;;;;;4981181;28;20416;-64
2022/07/25 13:30:36;;;;;;;5.80;4.00;;;;;;;;;;4986573;28;20046;-64
2022/07/25 13:33:01;;;;;;;6.57;4.00;;;;;;;;;;4978843;28;20074;-64
2022/07/25 13:35:27;;;;;;;6.75;3.95;;;;;;;;;;4983628;28;20033;-63
2022/07/25 13:37:52;;;;;;;6.40;4.00;;;;;;;;;;4983138;28;20097;-64
2022/07/25 13:40:18;;;;;;;5.25;3.88;;;;;;;;;;4980825;28;20047;-64
2022/07/25 13:42:43;;;;;;;5.20;3.70;;;;;;;;;;4986588;28;20051;-65
2022/07/25 13:45:09;;;;;;;7.40;4.00;;;;;;;;;;4980316;28;20054;-65
2022/07/25 13:47:35;;;;;;;5.50;4.10;;;;;;;;;;4983229;28;20046;-64
2022/07/25 13:50:00;;;;;;;4.25;3.85;;;;;;;;;;4979706;28;20054;-63
2022/07/25 13:52:26;;;;;;;3.92;3.60;;;;;;;;;;4984125;28;20042;-64
2022/07/25 13:54:51;;;;;;;5.22;3.50;;;;;;;;;;4983856;28;20038;-63
2022/07/25 13:57:18;;;;;;;7.53;4.10;;;;;;;;;;4983760;28;20050;-64
2022/07/25 13:59:43;;;;;;;5.45;3.70;;;;;;;;;;4985692;28;20046;-63
2022/07/25 14:02:09;;;;;;;5.05;3.97;;;;;;;;;;4986549;28;20530;-63
2022/07/25 14:04:34;;;;;;;5.38;3.60;;;;;;;;;;4985508;28;20046;-63
2022/07/25 14:07:00;;;;;;;7.15;3.80;;;;;;;;;;4981193;28;20042;-63
2022/07/25 14:09:26;;;;;;;6.80;3.80;;;;;;;;;;4983502;28;20051;-64
2022/07/25 14:11:51;;;;;;;7.13;3.95;;;;;;;;;;4986783;28;20134;-64
2022/07/25 14:14:17;;;;;;;5.00;3.63;;;;;;;;;;4985961;28;20604;-62
2022/07/25 14:16:42;;;;;;;8.25;3.90;;;;;;;;;;4983119;28;20034;-64
2022/07/25 14:19:08;;;;;;;4.65;3.85;;;;;;;;;;4968645;28;20141;-61
2022/07/25 14:21:33;;;;;;;5.15;3.90;;;;;;;;;;4978050;28;20038;-62
2022/07/25 14:23:59;;;;;;;4.45;4.05;;;;;;;;;;4986102;28;20077;-63
2022/07/25 14:26:27;;;;;;;5.15;4.05;;;;;;;;;;4980996;28;20050;-63
2022/07/25 14:28:53;;;;;;;8.85;4.20;;;;;;;;;;4981401;28;20041;-63
2022/07/25 14:31:20;;;;;;;7.18;3.70;;;;;;;;;;4986268;28;20431;-65
2022/07/25 14:33:45;;;;;;;7.10;3.80;;;;;;;;;;4984235;28;20130;-62
2022/07/25 14:36:11;;;;;;;12.35;4.13;;;;;;;;;;4981547;28;20137;-63
2022/07/25 14:38:37;;;;;;;4.90;3.75;;;;;;;;;;4984370;28;20046;-62
2022/07/25 14:41:03;;;;;;;6.75;3.80;;;;;;;;;;4980422;28;20027;-63